sensor_id;sensor_type;location;lat;lon;timestamp;pressure;altitude;pressure_sealevel;temperature;humidity
21096;BME280;10706;49.036;12.112;2023-06-26T00:02:18;97746.19;;;15.98;88.00
21096;BME280;10706;49.036;12.112;2023-06-26T00:04:44;97743.25;;;15.99;87.68
21096;BME280;10706;49.036;12.112;2023-06-26T00:07:10;97739.97;;;15.97;87.99
21096;BME280;10706;49.036;12.112;2023-06-26T00:09:36;97745.66;;;15.90;87.65
21096;BME280;10706;49.036;12.112;2023-06-26T00:12:02;97743.75;;;15.86;87.18
21096;BME280;10706;49.036;12.112;2023-06-26T00:14:28;97743.50;;;15.82;87.94
21096;BME280;10706;49.036;12.112;2023-06-26T00:16:54;97747.78;;;15.78;87.78
21096;BME280;10706;49.036;12.112;2023-06-26T00:19:20;97739.19;;;15.76;88.25
21096;BME280;10706;49.036;12.112;2023-06-26T00:21:46;97737.59;;;15.75;88.13
21096;BME280;10706;49.036;12.112;2023-06-26T00:24:16;97743.22;;;15.73;88.08
21096;BME280;10706;49.036;12.112;2023-06-26T00:26:41;97748.88;;;15.77;88.26
21096;BME280;10706;49.036;12.112;2023-06-26T00:29:07;97748.03;;;15.71;88.58
21096;BME280;10706;49.036;12.112;2023-06-26T00:31:33;97747.22;;;15.66;88.75
21096;BME280;10706;49.036;12.112;2023-06-26T00:34:00;97750.44;;;15.63;89.80
21096;BME280;10706;49.036;12.112;2023-06-26T00:36:27;97748.56;;;15.58;89.28
21096;BME280;10706;49.036;12.112;2023-06-26T00:38:52;97754.22;;;15.57;89.43
21096;BME280;10706;49.036;12.112;2023-06-26T00:41:19;97756.63;;;15.53;89.02
21096;BME280;10706;49.036;12.112;2023-06-26T00:43:45;97750.97;;;15.49;88.98
21096;BME280;10706;49.036;12.112;2023-06-26T00:46:13;97748.00;;;15.46;89.32
21096;BME280;10706;49.036;12.112;2023-06-26T00:48:44;97752.03;;;15.43;89.58
21096;BME280;10706;49.036;12.112;2023-06-26T00:51:11;97748.81;;;15.41;89.96
21096;BME280;10706;49.036;12.112;2023-06-26T00:53:37;97752.81;;;15.39;89.45
21096;BME280;10706;49.036;12.112;2023-06-26T00:56:04;97753.91;;;15.38;90.34
21096;BME280;10706;49.036;12.112;2023-06-26T00:58:30;97744.47;;;15.35;90.33
21096;BME280;10706;49.036;12.112;2023-06-26T01:00:57;97750.41;;;15.37;90.98
21096;BME280;10706;49.036;12.112;2023-06-26T01:03:23;97752.56;;;15.40;91.49
21096;BME280;10706;49.036;12.112;2023-06-26T01:05:52;97750.13;;;15.39;91.67
21096;BME280;10706;49.036;12.112;2023-06-26T01:08:18;97749.84;;;15.35;92.23
21096;BME280;10706;49.036;12.112;2023-06-26T01:10:45;97747.97;;;15.30;92.19
21096;BME280;10706;49.036;12.112;2023-06-26T01:13:13;97747.69;;;15.27;92.57
21096;BME280;10706;49.036;12.112;2023-06-26T01:15:40;97743.91;;;15.23;92.98
21096;BME280;10706;49.036;12.112;2023-06-26T01:18:06;97744.44;;;15.20;93.16
21096;BME280;10706;49.036;12.112;2023-06-26T01:20:39;97740.66;;;15.15;93.87
21096;BME280;10706;49.036;12.112;2023-06-26T01:23:29;97739.59;;;15.11;93.66
21096;BME280;10706;49.036;12.112;2023-06-26T01:28:35;97738.50;;;15.12;93.85
21096;BME280;10706;49.036;12.112;2023-06-26T01:31:03;97734.75;;;15.13;93.43
21096;BME280;10706;49.036;12.112;2023-06-26T01:33:30;97738.53;;;15.18;94.13
21096;BME280;10706;49.036;12.112;2023-06-26T01:35:56;97741.75;;;15.20;93.93
21096;BME280;10706;49.036;12.112;2023-06-26T01:38:22;97728.28;;;15.14;93.80
21096;BME280;10706;49.036;12.112;2023-06-26T01:40:52;97724.78;;;15.09;94.33
21096;BME280;10706;49.036;12.112;2023-06-26T01:46:25;97731.47;;;15.01;94.45
21096;BME280;10706;49.036;12.112;2023-06-26T01:51:58;97736.28;;;14.89;95.13
21096;BME280;10706;49.036;12.112;2023-06-26T01:54:30;97727.38;;;14.88;94.95
21096;BME280;10706;49.036;12.112;2023-06-26T01:56:59;97732.22;;;14.86;94.86
21096;BME280;10706;49.036;12.112;2023-06-26T01:59:26;97731.94;;;14.83;94.51
21096;BME280;10706;49.036;12.112;2023-06-26T02:01:54;97726.31;;;14.79;94.53
21096;BME280;10706;49.036;12.112;2023-06-26T02:04:20;97732.19;;;14.76;95.14
21096;BME280;10706;49.036;12.112;2023-06-26T02:06:45;97732.19;;;14.76;94.96
21096;BME280;10706;49.036;12.112;2023-06-26T02:09:11;97732.75;;;14.78;95.06
21096;BME280;10706;49.036;12.112;2023-06-26T02:11:37;97741.31;;;14.75;95.43
21096;BME280;10706;49.036;12.112;2023-06-26T02:14:03;97741.03;;;14.71;94.83
21096;BME280;10706;49.036;12.112;2023-06-26T02:16:29;97736.19;;;14.68;95.18
21096;BME280;10706;49.036;12.112;2023-06-26T02:18:55;97737.81;;;14.74;95.76
21096;BME280;10706;49.036;12.112;2023-06-26T02:21:23;97740.22;;;14.71;95.84
21096;BME280;10706;49.036;12.112;2023-06-26T02:23:49;97738.84;;;14.63;95.27
21096;BME280;10706;49.036;12.112;2023-06-26T02:26:14;97732.94;;;14.61;95.88
21096;BME280;10706;49.036;12.112;2023-06-26T02:28:40;97730.19;;;14.56;95.43
21096;BME280;10706;49.036;12.112;2023-06-26T02:31:06;97731.53;;;14.53;96.34
21096;BME280;10706;49.036;12.112;2023-06-26T02:33:31;97726.09;;;14.48;96.66
21096;BME280;10706;49.036;12.112;2023-06-26T02:35:57;97731.75;;;14.47;95.83
21096;BME280;10706;49.036;12.112;2023-06-26T02:38:23;97726.38;;;14.47;96.72
21096;BME280;10706;49.036;12.112;2023-06-26T02:40:49;97726.06;;;14.43;96.96
21096;BME280;10706;49.036;12.112;2023-06-26T02:43:14;97730.69;;;14.48;96.58
21096;BME280;10706;49.036;12.112;2023-06-26T02:45:41;97729.88;;;14.47;96.69
21096;BME280;10706;49.036;12.112;2023-06-26T02:48:07;97729.88;;;14.47;97.05
21096;BME280;10706;49.036;12.112;2023-06-26T02:50:33;97734.41;;;14.47;97.35
21096;BME280;10706;49.036;12.112;2023-06-26T02:52:58;97736.03;;;14.43;97.01
21096;BME280;10706;49.036;12.112;2023-06-26T02:55:24;97739.75;;;14.36;97.29
21096;BME280;10706;49.036;12.112;2023-06-26T02:57:51;97737.88;;;14.37;97.82
21096;BME280;10706;49.036;12.112;2023-06-26T03:00:17;97740.25;;;14.33;97.43
21096;BME280;10706;49.036;12.112;2023-06-26T03:02:42;97741.91;;;14.34;97.88
21096;BME280;10706;49.036;12.112;2023-06-26T03:05:08;97743.25;;;14.37;97.66
21096;BME280;10706;49.036;12.112;2023-06-26T03:07:34;97738.66;;;14.32;98.13
21096;BME280;10706;49.036;12.112;2023-06-26T03:09:59;97736.47;;;14.29;97.69
21096;BME280;10706;49.036;12.112;2023-06-26T03:12:25;97738.06;;;14.25;97.55
21096;BME280;10706;49.036;12.112;2023-06-26T03:14:51;97740.22;;;14.23;98.20
21096;BME280;10706;49.036;12.112;2023-06-26T03:17:17;97736.97;;;14.21;98.38
21096;BME280;10706;49.036;12.112;2023-06-26T03:19:43;97736.44;;;14.24;98.03
21096;BME280;10706;49.036;12.112;2023-06-26T03:22:08;97741.00;;;14.24;98.81
21096;BME280;10706;49.036;12.112;2023-06-26T03:24:34;97738.31;;;14.24;98.74
21096;BME280;10706;49.036;12.112;2023-06-26T03:27:00;97744.75;;;14.23;98.61
21096;BME280;10706;49.036;12.112;2023-06-26T03:29:25;97748.00;;;14.25;98.83
21096;BME280;10706;49.036;12.112;2023-06-26T03:31:51;97740.75;;;14.25;98.97
21096;BME280;10706;49.036;12.112;2023-06-26T03:34:17;97737.53;;;14.23;99.36
21096;BME280;10706;49.036;12.112;2023-06-26T03:36:42;97741.00;;;14.24;99.27
21096;BME280;10706;49.036;12.112;2023-06-26T03:39:08;97741.00;;;14.24;99.67
21096;BME280;10706;49.036;12.112;2023-06-26T03:41:34;97744.25;;;14.26;99.28
21096;BME280;10706;49.036;12.112;2023-06-26T03:43:59;97747.19;;;14.24;99.19
21096;BME280;10706;49.036;12.112;2023-06-26T03:46:26;97749.88;;;14.24;99.88
21096;BME280;10706;49.036;12.112;2023-06-26T03:48:52;97750.41;;;14.26;99.94
21096;BME280;10706;49.036;12.112;2023-06-26T03:51:18;97748.00;;;14.25;99.66
21096;BME280;10706;49.036;12.112;2023-06-26T03:53:43;97744.03;;;14.32;99.13
21096;BME280;10706;49.036;12.112;2023-06-26T03:56:09;97740.78;;;14.30;98.75
21096;BME280;10706;49.036;12.112;2023-06-26T03:58:35;97738.13;;;14.30;99.37
21096;BME280;10706;49.036;12.112;2023-06-26T04:01:00;97735.44;;;14.30;98.85
21096;BME280;10706;49.036;12.112;2023-06-26T04:03:26;97742.91;;;14.28;98.65
21096;BME280;10706;49.036;12.112;2023-06-26T04:05:52;97739.66;;;14.26;98.93
21096;BME280;10706;49.036;12.112;2023-06-26T04:08:18;97748.84;;;14.30;98.63
21096;BME280;10706;49.036;12.112;2023-06-26T04:10:45;97753.94;;;14.32;98.72
21096;BME280;10706;49.036;12.112;2023-06-26T04:13:11;97755.34;;;14.39;99.64
21096;BME280;10706;49.036;12.112;2023-06-26T04:15:37;97754.56;;;14.44;99.11
21096;BME280;10706;49.036;12.112;2023-06-26T04:18:03;97751.13;;;14.54;98.14
21096;BME280;10706;49.036;12.112;2023-06-26T04:20:29;97755.47;;;14.60;98.53
21096;BME280;10706;49.036;12.112;2023-06-26T04:22:54;97744.25;;;14.68;97.31
21096;BME280;10706;49.036;12.112;2023-06-26T04:25:20;97748.88;;;14.78;96.60
21096;BME280;10706;49.036;12.112;2023-06-26T04:27:46;97747.00;;;14.84;96.31
21096;BME280;10706;49.036;12.112;2023-06-26T04:30:12;97733.88;;;14.92;96.16
21096;BME280;10706;49.036;12.112;2023-06-26T04:32:38;97737.41;;;14.98;95.51
21096;BME280;10706;49.036;12.112;2023-06-26T04:35:04;97733.38;;;15.06;96.19
21096;BME280;10706;49.036;12.112;2023-06-26T04:37:30;97734.22;;;15.11;95.27
21096;BME280;10706;49.036;12.112;2023-06-26T04:39:55;97733.94;;;15.18;96.09
21096;BME280;10706;49.036;12.112;2023-06-26T04:42:21;97734.50;;;15.25;95.17
21096;BME280;10706;49.036;12.112;2023-06-26T04:44:47;97734.53;;;15.35;94.81
21096;BME280;10706;49.036;12.112;2023-06-26T04:47:13;97735.34;;;15.41;94.06
21096;BME280;10706;49.036;12.112;2023-06-26T04:49:41;97742.38;;;15.52;93.46
21096;BME280;10706;49.036;12.112;2023-06-26T04:52:12;97732.94;;;15.65;93.50
21096;BME280;10706;49.036;12.112;2023-06-26T04:54:40;97735.97;;;15.79;94.25
21096;BME280;10706;49.036;12.112;2023-06-26T04:57:06;97738.91;;;15.93;93.50
21096;BME280;10706;49.036;12.112;2023-06-26T04:59:34;97733.28;;;16.05;93.96
21096;BME280;10706;49.036;12.112;2023-06-26T05:02:00;97740.50;;;16.20;93.61
21096;BME280;10706;49.036;12.112;2023-06-26T05:04:25;97723.81;;;16.33;92.28
21096;BME280;10706;49.036;12.112;2023-06-26T05:06:51;97729.94;;;16.49;91.95
21096;BME280;10706;49.036;12.112;2023-06-26T05:09:17;97726.69;;;16.62;92.25
21096;BME280;10706;49.036;12.112;2023-06-26T05:11:42;97721.22;;;16.78;91.49
21096;BME280;10706;49.036;12.112;2023-06-26T05:14:08;97729.31;;;16.88;91.18
21096;BME280;10706;49.036;12.112;2023-06-26T05:16:35;97727.06;;;17.05;90.54
21096;BME280;10706;49.036;12.112;2023-06-26T05:19:00;97731.84;;;17.19;90.80
21096;BME280;10706;49.036;12.112;2023-06-26T05:21:27;97734.50;;;17.29;86.58
21096;BME280;10706;49.036;12.112;2023-06-26T05:23:56;97734.44;;;17.39;86.73
21096;BME280;10706;49.036;12.112;2023-06-26T05:26:25;97727.34;;;17.54;86.64
21096;BME280;10706;49.036;12.112;2023-06-26T05:28:52;97733.19;;;17.66;84.84
21096;BME280;10706;49.036;12.112;2023-06-26T05:31:18;97727.44;;;17.78;84.65
21096;BME280;10706;49.036;12.112;2023-06-26T05:33:44;97729.00;;;17.89;84.99
21096;BME280;10706;49.036;12.112;2023-06-26T05:36:12;97725.69;;;17.97;84.08
21096;BME280;10706;49.036;12.112;2023-06-26T05:38:38;97722.94;;;18.02;83.43
21096;BME280;10706;49.036;12.112;2023-06-26T05:41:04;97731.75;;;18.13;82.17
21096;BME280;10706;49.036;12.112;2023-06-26T05:43:30;97726.28;;;18.18;81.64
21096;BME280;10706;49.036;12.112;2023-06-26T05:45:56;97725.44;;;18.23;80.14
21096;BME280;10706;49.036;12.112;2023-06-26T05:48:23;97725.06;;;18.35;80.36
21096;BME280;10706;49.036;12.112;2023-06-26T05:50:49;97718.44;;;18.46;79.87
21096;BME280;10706;49.036;12.112;2023-06-26T05:53:15;97725.41;;;18.52;79.08
21096;BME280;10706;49.036;12.112;2023-06-26T05:55:41;97720.69;;;18.63;79.00
21096;BME280;10706;49.036;12.112;2023-06-26T05:58:10;97730.06;;;18.71;76.68
21096;BME280;10706;49.036;12.112;2023-06-26T06:00:38;97726.69;;;18.84;78.15
21096;BME280;10706;49.036;12.112;2023-06-26T06:03:05;97732.00;;;18.94;77.34
21096;BME280;10706;49.036;12.112;2023-06-26T06:05:31;97729.75;;;19.01;75.74
21096;BME280;10706;49.036;12.112;2023-06-26T06:07:57;97731.75;;;19.15;76.38
21096;BME280;10706;49.036;12.112;2023-06-26T06:10:22;97734.28;;;19.25;76.55
21096;BME280;10706;49.036;12.112;2023-06-26T06:12:48;97742.28;;;19.35;74.73
21096;BME280;10706;49.036;12.112;2023-06-26T06:15:14;97735.13;;;19.45;74.58
21096;BME280;10706;49.036;12.112;2023-06-26T06:17:39;97729.78;;;19.58;74.33
21096;BME280;10706;49.036;12.112;2023-06-26T06:20:05;97725.75;;;19.75;75.36
21096;BME280;10706;49.036;12.112;2023-06-26T06:22:32;97729.91;;;19.86;74.94
21096;BME280;10706;49.036;12.112;2023-06-26T06:24:57;97729.09;;;19.86;72.96
21096;BME280;10706;49.036;12.112;2023-06-26T06:27:23;97726.53;;;19.94;73.80
21096;BME280;10706;49.036;12.112;2023-06-26T06:29:49;97721.13;;;20.08;73.31
21096;BME280;10706;49.036;12.112;2023-06-26T06:32:15;97733.72;;;20.18;72.36
21096;BME280;10706;49.036;12.112;2023-06-26T06:34:40;97733.75;;;20.32;72.74
21096;BME280;10706;49.036;12.112;2023-06-26T06:37:06;97732.16;;;20.45;73.34
21096;BME280;10706;49.036;12.112;2023-06-26T06:39:32;97737.28;;;20.46;72.37
21096;BME280;10706;49.036;12.112;2023-06-26T06:41:58;97738.13;;;20.61;72.60
21096;BME280;10706;49.036;12.112;2023-06-26T06:44:23;97733.31;;;20.71;71.96
21096;BME280;10706;49.036;12.112;2023-06-26T06:46:49;97734.41;;;20.84;71.87
21096;BME280;10706;49.036;12.112;2023-06-26T06:49:15;97735.13;;;20.90;70.89
21096;BME280;10706;49.036;12.112;2023-06-26T06:51:41;97724.97;;;20.95;69.44
21096;BME280;10706;49.036;12.112;2023-06-26T06:54:06;97726.84;;;21.09;70.26
21096;BME280;10706;49.036;12.112;2023-06-26T06:56:32;97731.25;;;21.32;70.14
21096;BME280;10706;49.036;12.112;2023-06-26T06:58:58;97734.25;;;21.45;69.47
21096;BME280;10706;49.036;12.112;2023-06-26T07:01:23;97734.34;;;21.26;66.67
21096;BME280;10706;49.036;12.112;2023-06-26T07:03:49;97737.19;;;21.21;68.25
21096;BME280;10706;49.036;12.112;2023-06-26T07:06:15;97726.00;;;21.36;67.51
21096;BME280;10706;49.036;12.112;2023-06-26T07:08:40;97722.16;;;21.37;67.01
21096;BME280;10706;49.036;12.112;2023-06-26T07:11:06;97722.56;;;21.44;67.05
21096;BME280;10706;49.036;12.112;2023-06-26T07:13:32;97719.69;;;21.63;68.28
21096;BME280;10706;49.036;12.112;2023-06-26T07:15:58;97719.97;;;21.76;66.18
21096;BME280;10706;49.036;12.112;2023-06-26T07:18:23;97714.56;;;21.84;66.71
21096;BME280;10706;49.036;12.112;2023-06-26T07:20:49;97717.72;;;22.00;67.17
21096;BME280;10706;49.036;12.112;2023-06-26T07:23:15;97713.75;;;22.06;64.95
21096;BME280;10706;49.036;12.112;2023-06-26T07:25:40;97707.56;;;22.14;63.18
21096;BME280;10706;49.036;12.112;2023-06-26T07:28:11;97704.53;;;22.16;60.65
21096;BME280;10706;49.036;12.112;2023-06-26T07:30:37;97706.69;;;22.05;60.66
21096;BME280;10706;49.036;12.112;2023-06-26T07:33:02;97706.69;;;22.05;60.45
21096;BME280;10706;49.036;12.112;2023-06-26T07:35:28;97709.03;;;22.21;60.04
21096;BME280;10706;49.036;12.112;2023-06-26T07:37:54;97716.66;;;22.32;60.81
21096;BME280;10706;49.036;12.112;2023-06-26T07:40:20;97714.28;;;22.40;57.73
21096;BME280;10706;49.036;12.112;2023-06-26T07:42:45;97712.72;;;22.47;56.25
21096;BME280;10706;49.036;12.112;2023-06-26T07:45:12;97715.78;;;22.55;56.47
21096;BME280;10706;49.036;12.112;2023-06-26T07:47:38;97715.97;;;22.58;57.23
21096;BME280;10706;49.036;12.112;2023-06-26T07:50:05;97713.28;;;22.76;57.08
21096;BME280;10706;49.036;12.112;2023-06-26T07:52:31;97711.09;;;22.95;57.35
21096;BME280;10706;49.036;12.112;2023-06-26T07:54:57;97712.78;;;23.05;55.93
21096;BME280;10706;49.036;12.112;2023-06-26T07:57:23;97715.66;;;23.17;56.47
21096;BME280;10706;49.036;12.112;2023-06-26T07:59:50;97714.72;;;23.31;55.94
21096;BME280;10706;49.036;12.112;2023-06-26T08:02:16;97704.16;;;23.38;54.33
21096;BME280;10706;49.036;12.112;2023-06-26T08:04:43;97709.59;;;23.38;53.88
21096;BME280;10706;49.036;12.112;2023-06-26T08:07:09;97704.94;;;23.38;52.22
21096;BME280;10706;49.036;12.112;2023-06-26T08:09:35;97702.53;;;23.45;51.15
21096;BME280;10706;49.036;12.112;2023-06-26T08:12:01;97696.44;;;23.57;54.31
21096;BME280;10706;49.036;12.112;2023-06-26T08:14:26;97696.44;;;23.75;52.97
21096;BME280;10706;49.036;12.112;2023-06-26T08:16:52;97696.91;;;23.94;54.76
21096;BME280;10706;49.036;12.112;2023-06-26T08:19:18;97695.63;;;24.00;52.57
21096;BME280;10706;49.036;12.112;2023-06-26T08:21:46;97690.97;;;24.01;52.35
21096;BME280;10706;49.036;12.112;2023-06-26T08:24:12;97692.25;;;24.03;51.84
21096;BME280;10706;49.036;12.112;2023-06-26T08:26:46;97695.59;;;24.09;50.84
21096;BME280;10706;49.036;12.112;2023-06-26T08:29:12;97694.19;;;24.03;49.17
21096;BME280;10706;49.036;12.112;2023-06-26T08:31:39;97682.97;;;23.96;50.90
21096;BME280;10706;49.036;12.112;2023-06-26T08:34:05;97688.22;;;24.10;52.76
21096;BME280;10706;49.036;12.112;2023-06-26T08:36:32;97684.34;;;24.19;51.46
21096;BME280;10706;49.036;12.112;2023-06-26T08:38:58;97683.66;;;24.31;51.51
21096;BME280;10706;49.036;12.112;2023-06-26T08:41:24;97675.56;;;24.43;50.87
21096;BME280;10706;49.036;12.112;2023-06-26T08:43:50;97681.34;;;24.51;50.75
21096;BME280;10706;49.036;12.112;2023-06-26T08:46:19;97682.31;;;24.55;49.55
21096;BME280;10706;49.036;12.112;2023-06-26T08:49:01;97672.56;;;24.75;52.72
21096;BME280;10706;49.036;12.112;2023-06-26T08:51:29;97671.53;;;24.88;50.62
21096;BME280;10706;49.036;12.112;2023-06-26T08:53:59;97676.66;;;24.90;48.74
21096;BME280;10706;49.036;12.112;2023-06-26T08:56:42;97671.41;;;25.06;50.44
21096;BME280;10706;49.036;12.112;2023-06-26T08:59:10;97669.09;;;25.16;51.76
21096;BME280;10706;49.036;12.112;2023-06-26T09:01:36;97665.69;;;25.19;46.87
21096;BME280;10706;49.036;12.112;2023-06-26T09:04:03;97671.00;;;25.25;49.42
21096;BME280;10706;49.036;12.112;2023-06-26T09:06:29;97664.09;;;25.39;50.41
21096;BME280;10706;49.036;12.112;2023-06-26T09:08:55;97667.19;;;25.38;46.83
21096;BME280;10706;49.036;12.112;2023-06-26T09:11:21;97666.03;;;25.60;47.94
21096;BME280;10706;49.036;12.112;2023-06-26T09:13:46;97660.47;;;25.69;46.97
21096;BME280;10706;49.036;12.112;2023-06-26T09:16:13;97661.66;;;25.80;46.95
21096;BME280;10706;49.036;12.112;2023-06-26T09:18:40;97652.75;;;26.04;46.97
21096;BME280;10706;49.036;12.112;2023-06-26T09:21:09;97658.81;;;26.10;44.48
21096;BME280;10706;49.036;12.112;2023-06-26T09:23:35;97653.13;;;26.15;47.19
21096;BME280;10706;49.036;12.112;2023-06-26T09:26:05;97652.84;;;25.95;45.15
21096;BME280;10706;49.036;12.112;2023-06-26T09:28:35;97645.78;;;26.07;47.04
21096;BME280;10706;49.036;12.112;2023-06-26T09:31:06;97643.66;;;25.79;44.83
21096;BME280;10706;49.036;12.112;2023-06-26T09:33:37;97644.19;;;25.72;45.62
21096;BME280;10706;49.036;12.112;2023-06-26T09:36:19;97643.44;;;25.84;46.47
21096;BME280;10706;49.036;12.112;2023-06-26T09:38:47;97636.69;;;26.15;47.73
21096;BME280;10706;49.036;12.112;2023-06-26T09:41:17;97636.81;;;26.31;44.99
21096;BME280;10706;49.036;12.112;2023-06-26T09:43:47;97645.38;;;26.54;43.94
21096;BME280;10706;49.036;12.112;2023-06-26T09:46:24;97630.19;;;26.44;44.59
21096;BME280;10706;49.036;12.112;2023-06-26T09:49:06;97629.88;;;26.70;43.38
21096;BME280;10706;49.036;12.112;2023-06-26T09:51:37;97625.41;;;26.90;45.58
21096;BME280;10706;49.036;12.112;2023-06-26T09:54:04;97624.09;;;27.12;45.28
21096;BME280;10706;49.036;12.112;2023-06-26T09:56:32;97622.13;;;27.25;43.41
21096;BME280;10706;49.036;12.112;2023-06-26T09:59:01;97614.88;;;27.45;42.28
21096;BME280;10706;49.036;12.112;2023-06-26T10:01:27;97614.09;;;27.61;41.48
21096;BME280;10706;49.036;12.112;2023-06-26T10:03:54;97613.69;;;27.75;41.05
21096;BME280;10706;49.036;12.112;2023-06-26T10:06:33;97610.25;;;27.78;41.26
21096;BME280;10706;49.036;12.112;2023-06-26T10:09:03;97610.53;;;27.88;42.23
21096;BME280;10706;49.036;12.112;2023-06-26T10:11:44;97607.56;;;27.94;41.92
21096;BME280;10706;49.036;12.112;2023-06-26T10:14:12;97611.50;;;27.80;37.91
21096;BME280;10706;49.036;12.112;2023-06-26T10:16:40;97601.22;;;27.77;41.21
21096;BME280;10706;49.036;12.112;2023-06-26T10:19:08;97602.28;;;27.88;38.78
21096;BME280;10706;49.036;12.112;2023-06-26T10:21:37;97606.28;;;27.91;37.60
21096;BME280;10706;49.036;12.112;2023-06-26T10:24:07;97594.66;;;28.10;39.64
21096;BME280;10706;49.036;12.112;2023-06-26T10:26:42;97596.19;;;28.43;39.73
21096;BME280;10706;49.036;12.112;2023-06-26T10:29:10;97590.63;;;28.55;39.17
21096;BME280;10706;49.036;12.112;2023-06-26T10:31:37;97593.09;;;28.60;38.58
21096;BME280;10706;49.036;12.112;2023-06-26T10:34:05;97583.13;;;28.72;40.22
21096;BME280;10706;49.036;12.112;2023-06-26T10:36:31;97581.81;;;28.65;35.33
21096;BME280;10706;49.036;12.112;2023-06-26T10:39:03;97579.09;;;28.49;35.51
21096;BME280;10706;49.036;12.112;2023-06-26T10:41:40;97573.00;;;28.40;33.62
21096;BME280;10706;49.036;12.112;2023-06-26T10:44:11;97569.97;;;28.61;37.22
21096;BME280;10706;49.036;12.112;2023-06-26T10:46:55;97571.75;;;28.89;39.24
21096;BME280;10706;49.036;12.112;2023-06-26T10:49:29;97567.81;;;28.90;32.41
21096;BME280;10706;49.036;12.112;2023-06-26T10:51:55;97561.66;;;28.77;31.39
21096;BME280;10706;49.036;12.112;2023-06-26T10:54:30;97566.53;;;29.03;35.44
21096;BME280;10706;49.036;12.112;2023-06-26T10:56:56;97563.75;;;29.19;31.92
21096;BME280;10706;49.036;12.112;2023-06-26T10:59:25;97558.75;;;29.25;30.62
21096;BME280;10706;49.036;12.112;2023-06-26T11:02:03;97563.66;;;29.35;30.11
21096;BME280;10706;49.036;12.112;2023-06-26T11:04:47;97556.91;;;29.52;30.49
21096;BME280;10706;49.036;12.112;2023-06-26T11:07:21;97552.63;;;29.55;31.12
21096;BME280;10706;49.036;12.112;2023-06-26T11:15:07;97553.19;;;29.64;30.37
21096;BME280;10706;49.036;12.112;2023-06-26T11:17:35;97542.22;;;29.87;30.70
21096;BME280;10706;49.036;12.112;2023-06-26T11:20:01;97531.06;;;30.03;30.06
21096;BME280;10706;49.036;12.112;2023-06-26T11:22:27;97530.97;;;30.22;30.74
21096;BME280;10706;49.036;12.112;2023-06-26T11:24:54;97537.19;;;30.42;30.09
21096;BME280;10706;49.036;12.112;2023-06-26T11:27:19;97533.03;;;30.52;30.14
21096;BME280;10706;49.036;12.112;2023-06-26T11:29:49;97529.44;;;30.25;28.97
21096;BME280;10706;49.036;12.112;2023-06-26T11:32:17;97522.22;;;30.17;28.46
21096;BME280;10706;49.036;12.112;2023-06-26T11:34:43;97524.75;;;30.29;27.51
21096;BME280;10706;49.036;12.112;2023-06-26T11:37:09;97525.75;;;30.40;29.38
21096;BME280;10706;49.036;12.112;2023-06-26T11:39:35;97526.47;;;30.64;29.07
21096;BME280;10706;49.036;12.112;2023-06-26T11:42:02;97513.94;;;30.70;28.42
21096;BME280;10706;49.036;12.112;2023-06-26T11:44:31;97518.34;;;30.75;28.90
21096;BME280;10706;49.036;12.112;2023-06-26T11:46:57;97516.63;;;30.36;27.90
21096;BME280;10706;49.036;12.112;2023-06-26T11:49:23;97512.78;;;30.41;28.98
21096;BME280;10706;49.036;12.112;2023-06-26T11:51:52;97511.66;;;31.06;27.62
21096;BME280;10706;49.036;12.112;2023-06-26T11:54:27;97518.72;;;31.78;26.75
21096;BME280;10706;49.036;12.112;2023-06-26T11:56:58;97515.31;;;32.51;25.46
21096;BME280;10706;49.036;12.112;2023-06-26T11:59:33;97513.66;;;32.40;25.48
21096;BME280;10706;49.036;12.112;2023-06-26T12:01:59;97502.19;;;32.38;26.96
21096;BME280;10706;49.036;12.112;2023-06-26T12:04:25;97491.19;;;33.33;25.98
21096;BME280;10706;49.036;12.112;2023-06-26T12:06:53;97496.00;;;34.00;24.49
21096;BME280;10706;49.036;12.112;2023-06-26T12:09:23;97489.19;;;35.43;23.15
21096;BME280;10706;49.036;12.112;2023-06-26T12:11:53;97492.00;;;34.37;23.71
21096;BME280;10706;49.036;12.112;2023-06-26T12:14:21;97480.44;;;34.60;23.16
21096;BME280;10706;49.036;12.112;2023-06-26T12:16:47;97496.34;;;33.38;25.41
21096;BME280;10706;49.036;12.112;2023-06-26T12:19:13;97499.09;;;33.30;24.71
21096;BME280;10706;49.036;12.112;2023-06-26T12:24:22;97493.09;;;33.14;25.72
21096;BME280;10706;49.036;12.112;2023-06-26T12:26:55;97486.88;;;33.82;23.91
21096;BME280;10706;49.036;12.112;2023-06-26T12:29:32;97487.69;;;33.82;26.12
21096;BME280;10706;49.036;12.112;2023-06-26T12:31:59;97479.34;;;33.57;25.30
21096;BME280;10706;49.036;12.112;2023-06-26T12:34:32;97484.91;;;33.64;25.41
21096;BME280;10706;49.036;12.112;2023-06-26T12:37:16;97484.06;;;34.50;22.95
21096;BME280;10706;49.036;12.112;2023-06-26T12:39:56;97469.44;;;35.31;23.17
21096;BME280;10706;49.036;12.112;2023-06-26T12:42:27;97466.38;;;35.18;22.97
21096;BME280;10706;49.036;12.112;2023-06-26T12:44:54;97472.06;;;36.05;22.49
21096;BME280;10706;49.036;12.112;2023-06-26T12:47:29;97470.22;;;36.32;21.86
21096;BME280;10706;49.036;12.112;2023-06-26T12:49:56;97464.97;;;35.96;21.16
21096;BME280;10706;49.036;12.112;2023-06-26T12:52:23;97470.19;;;37.01;19.25
21096;BME280;10706;49.036;12.112;2023-06-26T12:54:54;97465.75;;;36.76;19.43
21096;BME280;10706;49.036;12.112;2023-06-26T12:57:21;97468.59;;;35.93;20.12
21096;BME280;10706;49.036;12.112;2023-06-26T12:59:47;97462.13;;;36.45;20.57
21096;BME280;10706;49.036;12.112;2023-06-26T13:02:12;97458.88;;;37.43;19.49
21096;BME280;10706;49.036;12.112;2023-06-26T13:04:38;97448.84;;;34.33;21.19
21096;BME280;10706;49.036;12.112;2023-06-26T13:07:08;97442.16;;;33.94;22.97
21096;BME280;10706;49.036;12.112;2023-06-26T13:09:35;97444.75;;;34.66;22.48